< < Back
Terminal Aerodrome Forecast


Current Version              Previous Versions:   1  2  3  4  5  6  7  8  9  

Terminal Aerodrome Forecast

418
FTUS42 KTAE 240500
TAFABY
TAF
KABY 240533Z 2406/2506 21007KT 6SM SHRA BR BKN007 OVC030
      TEMPO 2410/2413 BKN003
     FM241600 24010KT P6SM BKN025
     FM241900 27018KT P6SM SCT030 BKN100=



Latest METAR

322
SAUS70 KWBC 241200 RRB
MTRABY
METAR KABY 241153Z 21011KT 2SM VCTS BR FEW021 BKN037 OVC044 21/19 A2983
RMK AO2 LTG DSNT NE TSB1054E26B46 SLP098 P0021 60023 70083
T02060194 10206 20183 53003 PWINO $


USA.gov is the U.S. government's official web portal to all federal, state and local government web resources and services.